sensor_id;sensor_type;location;lat;lon;timestamp;P1;durP1;ratioP1;P2;durP2;ratioP2
3916;SDS011;1973;50.518;7.318;2022-10-31T00:00:31;15.20;;;4.83;;
3916;SDS011;1973;50.518;7.318;2022-10-31T00:02:58;8.97;;;5.83;;
3916;SDS011;1973;50.518;7.318;2022-10-31T00:05:25;14.27;;;5.60;;
3916;SDS011;1973;50.518;7.318;2022-10-31T00:07:52;9.30;;;6.10;;
3916;SDS011;1973;50.518;7.318;2022-10-31T00:10:19;9.80;;;5.40;;
3916;SDS011;1973;50.518;7.318;2022-10-31T00:12:45;7.50;;;4.60;;
3916;SDS011;1973;50.518;7.318;2022-10-31T00:15:12;10.27;;;5.73;;
3916;SDS011;1973;50.518;7.318;2022-10-31T00:17:38;11.27;;;5.43;;
3916;SDS011;1973;50.518;7.318;2022-10-31T00:20:05;8.77;;;5.20;;
3916;SDS011;1973;50.518;7.318;2022-10-31T00:22:32;10.23;;;5.10;;
3916;SDS011;1973;50.518;7.318;2022-10-31T00:24:58;6.73;;;4.43;;
3916;SDS011;1973;50.518;7.318;2022-10-31T00:27:25;6.70;;;4.87;;
3916;SDS011;1973;50.518;7.318;2022-10-31T00:29:51;9.60;;;5.60;;
3916;SDS011;1973;50.518;7.318;2022-10-31T00:32:18;12.13;;;4.90;;
3916;SDS011;1973;50.518;7.318;2022-10-31T00:34:44;6.57;;;4.67;;
3916;SDS011;1973;50.518;7.318;2022-10-31T00:37:10;8.80;;;5.00;;
3916;SDS011;1973;50.518;7.318;2022-10-31T00:39:37;7.97;;;4.97;;
3916;SDS011;1973;50.518;7.318;2022-10-31T00:42:03;10.23;;;5.33;;
3916;SDS011;1973;50.518;7.318;2022-10-31T00:44:30;13.83;;;4.97;;
3916;SDS011;1973;50.518;7.318;2022-10-31T00:46:56;11.60;;;5.70;;
3916;SDS011;1973;50.518;7.318;2022-10-31T00:49:22;7.87;;;5.17;;
3916;SDS011;1973;50.518;7.318;2022-10-31T00:51:49;9.97;;;5.87;;
3916;SDS011;1973;50.518;7.318;2022-10-31T00:54:15;9.97;;;5.30;;
3916;SDS011;1973;50.518;7.318;2022-10-31T00:56:42;15.13;;;6.13;;
3916;SDS011;1973;50.518;7.318;2022-10-31T00:59:08;8.63;;;5.43;;
3916;SDS011;1973;50.518;7.318;2022-10-31T01:01:35;12.60;;;6.03;;
3916;SDS011;1973;50.518;7.318;2022-10-31T01:04:01;10.03;;;6.27;;
3916;SDS011;1973;50.518;7.318;2022-10-31T01:06:28;6.70;;;5.43;;
3916;SDS011;1973;50.518;7.318;2022-10-31T01:08:54;7.87;;;5.47;;
3916;SDS011;1973;50.518;7.318;2022-10-31T01:11:21;8.93;;;5.57;;
3916;SDS011;1973;50.518;7.318;2022-10-31T01:13:50;8.37;;;5.10;;
3916;SDS011;1973;50.518;7.318;2022-10-31T01:16:18;9.80;;;5.90;;
3916;SDS011;1973;50.518;7.318;2022-10-31T01:18:46;8.57;;;5.13;;
3916;SDS011;1973;50.518;7.318;2022-10-31T01:21:14;7.73;;;5.73;;
3916;SDS011;1973;50.518;7.318;2022-10-31T01:23:46;7.07;;;5.43;;
3916;SDS011;1973;50.518;7.318;2022-10-31T01:26:20;9.50;;;5.73;;
3916;SDS011;1973;50.518;7.318;2022-10-31T01:28:55;12.10;;;5.77;;
3916;SDS011;1973;50.518;7.318;2022-10-31T01:31:27;14.73;;;5.73;;
3916;SDS011;1973;50.518;7.318;2022-10-31T01:33:55;6.67;;;5.50;;
3916;SDS011;1973;50.518;7.318;2022-10-31T01:36:26;11.30;;;5.50;;
3916;SDS011;1973;50.518;7.318;2022-10-31T01:38:58;10.13;;;5.90;;
3916;SDS011;1973;50.518;7.318;2022-10-31T01:41:28;6.80;;;5.40;;
3916;SDS011;1973;50.518;7.318;2022-10-31T01:44:00;8.70;;;5.50;;
3916;SDS011;1973;50.518;7.318;2022-10-31T01:46:52;6.77;;;4.70;;
3916;SDS011;1973;50.518;7.318;2022-10-31T01:49:24;8.17;;;5.63;;
3916;SDS011;1973;50.518;7.318;2022-10-31T01:55:00;7.83;;;6.00;;
3916;SDS011;1973;50.518;7.318;2022-10-31T01:58:07;9.67;;;5.27;;
3916;SDS011;1973;50.518;7.318;2022-10-31T02:00:38;7.70;;;5.53;;
3916;SDS011;1973;50.518;7.318;2022-10-31T02:03:08;7.40;;;5.70;;
3916;SDS011;1973;50.518;7.318;2022-10-31T02:05:34;5.97;;;4.80;;
3916;SDS011;1973;50.518;7.318;2022-10-31T02:08:16;12.17;;;6.80;;
3916;SDS011;1973;50.518;7.318;2022-10-31T02:10:46;7.97;;;5.60;;
3916;SDS011;1973;50.518;7.318;2022-10-31T02:13:13;7.63;;;5.30;;
3916;SDS011;1973;50.518;7.318;2022-10-31T02:15:40;10.90;;;4.93;;
3916;SDS011;1973;50.518;7.318;2022-10-31T02:18:10;10.90;;;6.00;;
3916;SDS011;1973;50.518;7.318;2022-10-31T02:20:39;8.43;;;6.00;;
3916;SDS011;1973;50.518;7.318;2022-10-31T02:25:53;8.57;;;5.83;;
3916;SDS011;1973;50.518;7.318;2022-10-31T02:33:59;10.20;;;6.60;;
3916;SDS011;1973;50.518;7.318;2022-10-31T02:36:53;7.20;;;5.90;;
3916;SDS011;1973;50.518;7.318;2022-10-31T02:39:35;18.33;;;6.23;;
3916;SDS011;1973;50.518;7.318;2022-10-31T02:45:13;7.70;;;6.20;;
3916;SDS011;1973;50.518;7.318;2022-10-31T02:47:46;11.67;;;5.80;;
3916;SDS011;1973;50.518;7.318;2022-10-31T02:50:23;7.60;;;5.03;;
3916;SDS011;1973;50.518;7.318;2022-10-31T02:52:54;9.23;;;6.07;;
3916;SDS011;1973;50.518;7.318;2022-10-31T02:57:54;9.27;;;5.60;;
3916;SDS011;1973;50.518;7.318;2022-10-31T03:00:26;9.10;;;6.33;;
3916;SDS011;1973;50.518;7.318;2022-10-31T03:03:00;7.43;;;5.27;;
3916;SDS011;1973;50.518;7.318;2022-10-31T03:08:41;10.90;;;5.73;;
3916;SDS011;1973;50.518;7.318;2022-10-31T03:11:16;11.23;;;6.10;;
3916;SDS011;1973;50.518;7.318;2022-10-31T03:13:52;8.43;;;5.53;;
3916;SDS011;1973;50.518;7.318;2022-10-31T03:16:30;11.77;;;6.53;;
3916;SDS011;1973;50.518;7.318;2022-10-31T03:19:08;11.50;;;5.90;;
3916;SDS011;1973;50.518;7.318;2022-10-31T03:24:13;12.50;;;5.87;;
3916;SDS011;1973;50.518;7.318;2022-10-31T03:26:42;7.77;;;5.43;;
3916;SDS011;1973;50.518;7.318;2022-10-31T03:29:15;11.20;;;5.70;;
3916;SDS011;1973;50.518;7.318;2022-10-31T03:31:46;9.80;;;5.97;;
3916;SDS011;1973;50.518;7.318;2022-10-31T03:34:13;10.47;;;5.37;;
3916;SDS011;1973;50.518;7.318;2022-10-31T03:36:42;8.60;;;6.07;;
3916;SDS011;1973;50.518;7.318;2022-10-31T03:39:12;8.47;;;6.03;;
3916;SDS011;1973;50.518;7.318;2022-10-31T03:41:42;11.23;;;6.03;;
3916;SDS011;1973;50.518;7.318;2022-10-31T03:44:14;8.47;;;5.97;;
3916;SDS011;1973;50.518;7.318;2022-10-31T03:46:43;7.50;;;6.20;;
3916;SDS011;1973;50.518;7.318;2022-10-31T03:49:10;10.87;;;6.10;;
3916;SDS011;1973;50.518;7.318;2022-10-31T03:51:40;11.40;;;5.77;;
3916;SDS011;1973;50.518;7.318;2022-10-31T03:54:20;11.50;;;6.67;;
3916;SDS011;1973;50.518;7.318;2022-10-31T03:57:11;10.33;;;7.00;;
3916;SDS011;1973;50.518;7.318;2022-10-31T03:59:40;8.80;;;6.23;;
3916;SDS011;1973;50.518;7.318;2022-10-31T04:02:11;6.07;;;5.07;;
3916;SDS011;1973;50.518;7.318;2022-10-31T04:04:42;9.80;;;5.53;;
3916;SDS011;1973;50.518;7.318;2022-10-31T04:07:10;8.10;;;5.13;;
3916;SDS011;1973;50.518;7.318;2022-10-31T04:09:40;9.30;;;5.80;;
3916;SDS011;1973;50.518;7.318;2022-10-31T04:12:09;9.60;;;5.30;;
3916;SDS011;1973;50.518;7.318;2022-10-31T04:14:41;9.07;;;6.17;;
3916;SDS011;1973;50.518;7.318;2022-10-31T04:17:12;9.60;;;6.07;;
3916;SDS011;1973;50.518;7.318;2022-10-31T04:19:40;9.67;;;6.20;;
3916;SDS011;1973;50.518;7.318;2022-10-31T04:22:07;9.73;;;6.20;;
3916;SDS011;1973;50.518;7.318;2022-10-31T04:24:33;6.93;;;5.33;;
3916;SDS011;1973;50.518;7.318;2022-10-31T04:27:00;8.30;;;6.10;;
3916;SDS011;1973;50.518;7.318;2022-10-31T04:29:26;8.13;;;5.93;;
3916;SDS011;1973;50.518;7.318;2022-10-31T04:31:53;6.47;;;5.30;;
3916;SDS011;1973;50.518;7.318;2022-10-31T04:34:19;14.80;;;6.10;;
3916;SDS011;1973;50.518;7.318;2022-10-31T04:36:46;9.70;;;6.00;;
3916;SDS011;1973;50.518;7.318;2022-10-31T04:39:12;7.30;;;5.47;;
3916;SDS011;1973;50.518;7.318;2022-10-31T04:41:38;10.00;;;6.80;;
3916;SDS011;1973;50.518;7.318;2022-10-31T04:44:05;6.60;;;5.07;;
3916;SDS011;1973;50.518;7.318;2022-10-31T04:46:31;8.73;;;5.70;;
3916;SDS011;1973;50.518;7.318;2022-10-31T04:48:58;7.30;;;4.73;;
3916;SDS011;1973;50.518;7.318;2022-10-31T04:51:24;9.30;;;6.13;;
3916;SDS011;1973;50.518;7.318;2022-10-31T04:53:51;8.57;;;5.30;;
3916;SDS011;1973;50.518;7.318;2022-10-31T04:56:17;6.70;;;5.70;;
3916;SDS011;1973;50.518;7.318;2022-10-31T04:58:44;8.37;;;5.40;;
3916;SDS011;1973;50.518;7.318;2022-10-31T05:01:10;9.60;;;5.50;;
3916;SDS011;1973;50.518;7.318;2022-10-31T05:03:37;9.50;;;6.30;;
3916;SDS011;1973;50.518;7.318;2022-10-31T05:06:05;9.63;;;6.40;;
3916;SDS011;1973;50.518;7.318;2022-10-31T05:08:32;8.80;;;6.40;;
3916;SDS011;1973;50.518;7.318;2022-10-31T05:10:59;17.00;;;6.60;;
3916;SDS011;1973;50.518;7.318;2022-10-31T05:13:30;8.10;;;6.20;;
3916;SDS011;1973;50.518;7.318;2022-10-31T05:15:57;7.30;;;6.03;;
3916;SDS011;1973;50.518;7.318;2022-10-31T05:18:23;8.03;;;5.60;;
3916;SDS011;1973;50.518;7.318;2022-10-31T05:20:49;8.20;;;6.27;;
3916;SDS011;1973;50.518;7.318;2022-10-31T05:23:16;10.80;;;7.43;;
3916;SDS011;1973;50.518;7.318;2022-10-31T05:25:42;10.40;;;5.93;;
3916;SDS011;1973;50.518;7.318;2022-10-31T05:28:09;11.33;;;6.67;;
3916;SDS011;1973;50.518;7.318;2022-10-31T05:30:36;8.27;;;5.90;;
3916;SDS011;1973;50.518;7.318;2022-10-31T05:33:02;9.20;;;5.67;;
3916;SDS011;1973;50.518;7.318;2022-10-31T05:35:30;11.10;;;7.73;;
3916;SDS011;1973;50.518;7.318;2022-10-31T05:37:58;15.93;;;6.40;;
3916;SDS011;1973;50.518;7.318;2022-10-31T05:40:25;10.97;;;5.87;;
3916;SDS011;1973;50.518;7.318;2022-10-31T05:42:53;12.83;;;7.43;;
3916;SDS011;1973;50.518;7.318;2022-10-31T05:45:22;11.83;;;7.10;;
3916;SDS011;1973;50.518;7.318;2022-10-31T05:47:52;13.90;;;7.47;;
3916;SDS011;1973;50.518;7.318;2022-10-31T05:50:20;15.10;;;7.67;;
3916;SDS011;1973;50.518;7.318;2022-10-31T05:52:46;11.97;;;6.90;;
3916;SDS011;1973;50.518;7.318;2022-10-31T05:55:13;11.47;;;7.43;;
3916;SDS011;1973;50.518;7.318;2022-10-31T05:57:40;9.30;;;6.70;;
3916;SDS011;1973;50.518;7.318;2022-10-31T06:00:06;12.80;;;7.50;;
3916;SDS011;1973;50.518;7.318;2022-10-31T06:02:33;14.40;;;7.60;;
3916;SDS011;1973;50.518;7.318;2022-10-31T06:05:00;9.43;;;7.40;;
3916;SDS011;1973;50.518;7.318;2022-10-31T06:07:31;19.33;;;8.43;;
3916;SDS011;1973;50.518;7.318;2022-10-31T06:09:58;12.37;;;7.13;;
3916;SDS011;1973;50.518;7.318;2022-10-31T06:12:25;15.20;;;7.17;;
3916;SDS011;1973;50.518;7.318;2022-10-31T06:14:51;11.37;;;6.93;;
3916;SDS011;1973;50.518;7.318;2022-10-31T06:17:18;10.73;;;7.97;;
3916;SDS011;1973;50.518;7.318;2022-10-31T06:19:44;14.40;;;7.50;;
3916;SDS011;1973;50.518;7.318;2022-10-31T06:22:11;12.90;;;8.10;;
3916;SDS011;1973;50.518;7.318;2022-10-31T06:24:37;14.70;;;9.00;;
3916;SDS011;1973;50.518;7.318;2022-10-31T06:27:04;16.27;;;8.23;;
3916;SDS011;1973;50.518;7.318;2022-10-31T06:29:31;14.80;;;9.20;;
3916;SDS011;1973;50.518;7.318;2022-10-31T06:31:58;11.37;;;8.50;;
3916;SDS011;1973;50.518;7.318;2022-10-31T06:34:24;13.17;;;7.73;;
3916;SDS011;1973;50.518;7.318;2022-10-31T06:36:50;11.47;;;7.50;;
3916;SDS011;1973;50.518;7.318;2022-10-31T06:39:17;14.07;;;7.87;;
3916;SDS011;1973;50.518;7.318;2022-10-31T06:41:43;14.37;;;7.87;;
3916;SDS011;1973;50.518;7.318;2022-10-31T06:44:10;13.63;;;7.90;;
3916;SDS011;1973;50.518;7.318;2022-10-31T06:46:36;11.80;;;7.70;;
3916;SDS011;1973;50.518;7.318;2022-10-31T06:49:03;13.57;;;8.17;;
3916;SDS011;1973;50.518;7.318;2022-10-31T06:51:30;16.30;;;9.73;;
3916;SDS011;1973;50.518;7.318;2022-10-31T06:53:56;11.97;;;8.50;;
3916;SDS011;1973;50.518;7.318;2022-10-31T06:56:23;25.27;;;10.47;;
3916;SDS011;1973;50.518;7.318;2022-10-31T06:58:49;11.33;;;8.60;;
3916;SDS011;1973;50.518;7.318;2022-10-31T07:01:16;14.20;;;9.17;;
3916;SDS011;1973;50.518;7.318;2022-10-31T07:03:42;11.23;;;8.70;;
3916;SDS011;1973;50.518;7.318;2022-10-31T07:06:09;15.50;;;8.33;;
3916;SDS011;1973;50.518;7.318;2022-10-31T07:08:35;14.10;;;8.73;;
3916;SDS011;1973;50.518;7.318;2022-10-31T07:11:01;15.47;;;9.53;;
3916;SDS011;1973;50.518;7.318;2022-10-31T07:13:28;10.10;;;8.27;;
3916;SDS011;1973;50.518;7.318;2022-10-31T07:15:59;12.13;;;8.80;;
3916;SDS011;1973;50.518;7.318;2022-10-31T07:18:26;13.23;;;9.60;;
3916;SDS011;1973;50.518;7.318;2022-10-31T07:20:53;12.10;;;9.07;;
3916;SDS011;1973;50.518;7.318;2022-10-31T07:23:20;15.43;;;10.07;;
3916;SDS011;1973;50.518;7.318;2022-10-31T07:25:47;21.10;;;9.87;;
3916;SDS011;1973;50.518;7.318;2022-10-31T07:28:14;17.07;;;10.70;;
3916;SDS011;1973;50.518;7.318;2022-10-31T07:30:40;13.10;;;10.97;;
3916;SDS011;1973;50.518;7.318;2022-10-31T07:33:08;16.47;;;10.87;;
3916;SDS011;1973;50.518;7.318;2022-10-31T07:35:34;13.57;;;10.47;;
3916;SDS011;1973;50.518;7.318;2022-10-31T07:38:08;17.17;;;10.53;;
3916;SDS011;1973;50.518;7.318;2022-10-31T07:40:36;18.40;;;11.07;;
3916;SDS011;1973;50.518;7.318;2022-10-31T07:43:03;13.70;;;9.60;;
3916;SDS011;1973;50.518;7.318;2022-10-31T07:45:36;13.37;;;9.63;;
3916;SDS011;1973;50.518;7.318;2022-10-31T07:48:03;17.80;;;10.00;;
3916;SDS011;1973;50.518;7.318;2022-10-31T07:50:30;12.40;;;10.50;;
3916;SDS011;1973;50.518;7.318;2022-10-31T07:55:26;12.10;;;10.70;;
3916;SDS011;1973;50.518;7.318;2022-10-31T07:57:57;13.03;;;9.30;;
3916;SDS011;1973;50.518;7.318;2022-10-31T08:00:45;16.03;;;12.20;;
3916;SDS011;1973;50.518;7.318;2022-10-31T08:03:14;18.40;;;13.17;;
3916;SDS011;1973;50.518;7.318;2022-10-31T08:05:42;18.00;;;11.37;;
3916;SDS011;1973;50.518;7.318;2022-10-31T08:08:08;16.87;;;11.57;;
3916;SDS011;1973;50.518;7.318;2022-10-31T08:10:35;18.23;;;11.87;;
3916;SDS011;1973;50.518;7.318;2022-10-31T08:13:06;17.77;;;11.63;;
3916;SDS011;1973;50.518;7.318;2022-10-31T08:15:37;15.60;;;11.83;;
3916;SDS011;1973;50.518;7.318;2022-10-31T08:18:11;17.60;;;12.30;;
3916;SDS011;1973;50.518;7.318;2022-10-31T08:20:39;19.63;;;11.90;;
3916;SDS011;1973;50.518;7.318;2022-10-31T08:23:06;16.33;;;11.50;;
3916;SDS011;1973;50.518;7.318;2022-10-31T08:25:33;16.23;;;11.47;;
3916;SDS011;1973;50.518;7.318;2022-10-31T08:28:04;15.80;;;12.10;;
3916;SDS011;1973;50.518;7.318;2022-10-31T08:30:32;16.60;;;12.00;;
3916;SDS011;1973;50.518;7.318;2022-10-31T08:35:30;16.77;;;12.07;;
3916;SDS011;1973;50.518;7.318;2022-10-31T08:37:57;18.67;;;11.97;;
3916;SDS011;1973;50.518;7.318;2022-10-31T08:40:25;21.23;;;13.47;;
3916;SDS011;1973;50.518;7.318;2022-10-31T08:42:57;16.10;;;11.87;;
3916;SDS011;1973;50.518;7.318;2022-10-31T08:45:24;15.27;;;11.47;;
3916;SDS011;1973;50.518;7.318;2022-10-31T08:47:50;16.70;;;12.40;;
3916;SDS011;1973;50.518;7.318;2022-10-31T08:50:17;14.77;;;12.03;;
3916;SDS011;1973;50.518;7.318;2022-10-31T08:52:44;12.67;;;10.60;;
3916;SDS011;1973;50.518;7.318;2022-10-31T08:55:30;15.93;;;12.33;;
3916;SDS011;1973;50.518;7.318;2022-10-31T08:57:57;14.73;;;11.97;;
3916;SDS011;1973;50.518;7.318;2022-10-31T09:00:25;15.10;;;11.93;;
3916;SDS011;1973;50.518;7.318;2022-10-31T09:02:58;17.97;;;11.30;;
3916;SDS011;1973;50.518;7.318;2022-10-31T09:05:26;15.10;;;12.33;;
3916;SDS011;1973;50.518;7.318;2022-10-31T09:07:59;20.13;;;11.47;;
3916;SDS011;1973;50.518;7.318;2022-10-31T09:10:27;17.33;;;12.20;;
3916;SDS011;1973;50.518;7.318;2022-10-31T09:13:05;20.20;;;13.57;;
3916;SDS011;1973;50.518;7.318;2022-10-31T09:15:34;17.87;;;12.23;;
3916;SDS011;1973;50.518;7.318;2022-10-31T09:18:02;17.37;;;12.53;;
3916;SDS011;1973;50.518;7.318;2022-10-31T09:20:30;17.43;;;12.13;;
3916;SDS011;1973;50.518;7.318;2022-10-31T09:23:01;12.63;;;11.00;;
3916;SDS011;1973;50.518;7.318;2022-10-31T09:25:30;15.93;;;11.10;;
3916;SDS011;1973;50.518;7.318;2022-10-31T09:27:57;12.77;;;11.17;;
3916;SDS011;1973;50.518;7.318;2022-10-31T09:30:25;19.07;;;13.63;;
3916;SDS011;1973;50.518;7.318;2022-10-31T09:33:04;13.10;;;10.83;;
3916;SDS011;1973;50.518;7.318;2022-10-31T09:35:38;15.73;;;11.97;;
3916;SDS011;1973;50.518;7.318;2022-10-31T09:38:06;15.60;;;11.50;;
3916;SDS011;1973;50.518;7.318;2022-10-31T09:40:45;17.17;;;11.67;;
3916;SDS011;1973;50.518;7.318;2022-10-31T09:43:15;14.50;;;10.87;;
3916;SDS011;1973;50.518;7.318;2022-10-31T09:46:07;16.73;;;11.53;;
3916;SDS011;1973;50.518;7.318;2022-10-31T09:48:55;19.63;;;12.53;;
3916;SDS011;1973;50.518;7.318;2022-10-31T09:51:37;18.53;;;12.43;;
3916;SDS011;1973;50.518;7.318;2022-10-31T09:54:12;16.13;;;12.03;;
3916;SDS011;1973;50.518;7.318;2022-10-31T09:56:43;18.00;;;12.53;;
3916;SDS011;1973;50.518;7.318;2022-10-31T09:59:18;14.60;;;12.27;;
3916;SDS011;1973;50.518;7.318;2022-10-31T10:01:56;15.30;;;12.10;;
3916;SDS011;1973;50.518;7.318;2022-10-31T10:04:44;16.80;;;12.70;;
3916;SDS011;1973;50.518;7.318;2022-10-31T10:10:13;17.60;;;12.17;;
3916;SDS011;1973;50.518;7.318;2022-10-31T10:16:25;16.27;;;10.53;;
3916;SDS011;1973;50.518;7.318;2022-10-31T10:32:24;16.07;;;11.97;;
3916;SDS011;1973;50.518;7.318;2022-10-31T10:34:55;15.40;;;10.80;;
3916;SDS011;1973;50.518;7.318;2022-10-31T10:37:30;15.97;;;11.20;;
3916;SDS011;1973;50.518;7.318;2022-10-31T10:40:33;15.50;;;11.07;;
3916;SDS011;1973;50.518;7.318;2022-10-31T10:45:48;16.90;;;12.10;;
3916;SDS011;1973;50.518;7.318;2022-10-31T10:48:51;13.50;;;11.30;;
3916;SDS011;1973;50.518;7.318;2022-10-31T10:51:28;17.03;;;11.77;;
3916;SDS011;1973;50.518;7.318;2022-10-31T11:00:00;16.67;;;10.87;;
3916;SDS011;1973;50.518;7.318;2022-10-31T11:02:31;18.07;;;10.87;;
3916;SDS011;1973;50.518;7.318;2022-10-31T11:04:58;16.50;;;11.60;;
3916;SDS011;1973;50.518;7.318;2022-10-31T11:07:37;15.40;;;10.57;;
3916;SDS011;1973;50.518;7.318;2022-10-31T11:10:05;18.27;;;10.80;;
3916;SDS011;1973;50.518;7.318;2022-10-31T11:12:40;13.60;;;10.23;;
3916;SDS011;1973;50.518;7.318;2022-10-31T11:15:18;15.93;;;11.00;;
3916;SDS011;1973;50.518;7.318;2022-10-31T11:17:49;14.93;;;10.23;;
3916;SDS011;1973;50.518;7.318;2022-10-31T11:22:45;17.27;;;10.00;;
3916;SDS011;1973;50.518;7.318;2022-10-31T11:27:45;14.90;;;9.20;;
3916;SDS011;1973;50.518;7.318;2022-10-31T11:30:13;20.63;;;10.77;;
3916;SDS011;1973;50.518;7.318;2022-10-31T11:32:45;14.20;;;10.33;;
3916;SDS011;1973;50.518;7.318;2022-10-31T11:35:16;13.23;;;9.80;;
3916;SDS011;1973;50.518;7.318;2022-10-31T11:37:45;14.43;;;9.60;;
3916;SDS011;1973;50.518;7.318;2022-10-31T11:40:23;11.87;;;10.00;;
3916;SDS011;1973;50.518;7.318;2022-10-31T11:42:52;15.33;;;10.77;;
3916;SDS011;1973;50.518;7.318;2022-10-31T11:47:50;14.10;;;10.60;;
3916;SDS011;1973;50.518;7.318;2022-10-31T11:50:27;15.77;;;11.57;;
3916;SDS011;1973;50.518;7.318;2022-10-31T11:53:02;15.63;;;10.27;;
3916;SDS011;1973;50.518;7.318;2022-10-31T11:55:31;15.33;;;9.90;;
3916;SDS011;1973;50.518;7.318;2022-10-31T11:58:02;17.60;;;11.07;;
3916;SDS011;1973;50.518;7.318;2022-10-31T12:00:32;15.60;;;9.57;;
3916;SDS011;1973;50.518;7.318;2022-10-31T12:03:26;17.60;;;10.40;;
3916;SDS011;1973;50.518;7.318;2022-10-31T12:06:42;14.93;;;9.60;;
3916;SDS011;1973;50.518;7.318;2022-10-31T12:08:51;15.40;;;9.57;;
3916;SDS011;1973;50.518;7.318;2022-10-31T12:13:53;14.50;;;9.97;;
3916;SDS011;1973;50.518;7.318;2022-10-31T12:19:31;11.77;;;8.07;;
3916;SDS011;1973;50.518;7.318;2022-10-31T12:22:08;13.50;;;9.00;;
3916;SDS011;1973;50.518;7.318;2022-10-31T12:24:49;11.43;;;8.13;;
3916;SDS011;1973;50.518;7.318;2022-10-31T12:30:30;10.30;;;7.40;;
3916;SDS011;1973;50.518;7.318;2022-10-31T12:33:22;8.57;;;7.20;;
3916;SDS011;1973;50.518;7.318;2022-10-31T12:39:07;10.00;;;8.00;;
3916;SDS011;1973;50.518;7.318;2022-10-31T12:41:46;11.87;;;7.70;;
3916;SDS011;1973;50.518;7.318;2022-10-31T12:50:14;10.67;;;8.57;;
3916;SDS011;1973;50.518;7.318;2022-10-31T12:56:06;15.23;;;9.80;;
3916;SDS011;1973;50.518;7.318;2022-10-31T12:58:44;13.03;;;9.40;;
3916;SDS011;1973;50.518;7.318;2022-10-31T13:04:11;17.13;;;9.80;;
3916;SDS011;1973;50.518;7.318;2022-10-31T13:06:49;12.33;;;9.30;;
3916;SDS011;1973;50.518;7.318;2022-10-31T13:09:22;14.10;;;10.23;;
3916;SDS011;1973;50.518;7.318;2022-10-31T13:11:56;18.20;;;9.47;;
3916;SDS011;1973;50.518;7.318;2022-10-31T13:14:35;13.07;;;9.90;;
3916;SDS011;1973;50.518;7.318;2022-10-31T13:17:09;12.27;;;9.30;;
3916;SDS011;1973;50.518;7.318;2022-10-31T13:19:47;11.60;;;10.10;;
3916;SDS011;1973;50.518;7.318;2022-10-31T13:22:18;16.73;;;10.33;;
3916;SDS011;1973;50.518;7.318;2022-10-31T13:24:54;11.67;;;8.83;;
3916;SDS011;1973;50.518;7.318;2022-10-31T13:27:26;14.50;;;9.70;;
3916;SDS011;1973;50.518;7.318;2022-10-31T13:38:09;15.60;;;10.23;;
3916;SDS011;1973;50.518;7.318;2022-10-31T13:40:50;12.23;;;10.27;;
3916;SDS011;1973;50.518;7.318;2022-10-31T13:43:38;15.40;;;9.57;;
3916;SDS011;1973;50.518;7.318;2022-10-31T13:46:23;17.30;;;10.50;;
3916;SDS011;1973;50.518;7.318;2022-10-31T13:48:51;14.10;;;10.57;;
3916;SDS011;1973;50.518;7.318;2022-10-31T13:51:24;14.70;;;10.13;;
3916;SDS011;1973;50.518;7.318;2022-10-31T13:56:25;13.33;;;10.20;;
3916;SDS011;1973;50.518;7.318;2022-10-31T13:59:00;15.80;;;10.30;;
3916;SDS011;1973;50.518;7.318;2022-10-31T14:01:32;17.73;;;11.43;;
3916;SDS011;1973;50.518;7.318;2022-10-31T14:04:01;17.13;;;10.17;;
3916;SDS011;1973;50.518;7.318;2022-10-31T14:06:45;12.27;;;9.30;;
3916;SDS011;1973;50.518;7.318;2022-10-31T14:09:17;13.73;;;11.63;;
3916;SDS011;1973;50.518;7.318;2022-10-31T14:11:56;13.53;;;10.10;;
3916;SDS011;1973;50.518;7.318;2022-10-31T14:14:28;15.10;;;9.83;;
3916;SDS011;1973;50.518;7.318;2022-10-31T14:16:59;14.77;;;10.20;;
3916;SDS011;1973;50.518;7.318;2022-10-31T14:19:27;12.57;;;10.60;;
3916;SDS011;1973;50.518;7.318;2022-10-31T14:21:53;14.17;;;9.60;;
3916;SDS011;1973;50.518;7.318;2022-10-31T14:26:59;14.10;;;11.00;;
3916;SDS011;1973;50.518;7.318;2022-10-31T14:29:29;12.10;;;8.80;;
3916;SDS011;1973;50.518;7.318;2022-10-31T14:34:34;17.47;;;9.33;;
3916;SDS011;1973;50.518;7.318;2022-10-31T14:42:38;16.63;;;9.50;;
3916;SDS011;1973;50.518;7.318;2022-10-31T14:45:23;10.60;;;8.07;;
3916;SDS011;1973;50.518;7.318;2022-10-31T14:48:09;11.87;;;8.97;;
3916;SDS011;1973;50.518;7.318;2022-10-31T14:50:50;11.60;;;7.70;;
3916;SDS011;1973;50.518;7.318;2022-10-31T14:53:26;10.03;;;7.40;;
3916;SDS011;1973;50.518;7.318;2022-10-31T14:56:16;11.77;;;7.90;;
3916;SDS011;1973;50.518;7.318;2022-10-31T14:58:48;10.00;;;7.33;;
3916;SDS011;1973;50.518;7.318;2022-10-31T15:01:21;7.97;;;7.17;;
3916;SDS011;1973;50.518;7.318;2022-10-31T15:03:58;13.20;;;7.83;;
3916;SDS011;1973;50.518;7.318;2022-10-31T15:07:33;18.40;;;9.20;;
3916;SDS011;1973;50.518;7.318;2022-10-31T15:09:43;12.23;;;7.43;;
3916;SDS011;1973;50.518;7.318;2022-10-31T15:14:53;12.53;;;8.07;;
3916;SDS011;1973;50.518;7.318;2022-10-31T15:17:19;10.90;;;7.00;;
3916;SDS011;1973;50.518;7.318;2022-10-31T15:19:46;7.77;;;6.97;;
3916;SDS011;1973;50.518;7.318;2022-10-31T15:22:14;11.10;;;7.77;;
3916;SDS011;1973;50.518;7.318;2022-10-31T15:24:43;16.60;;;8.67;;
3916;SDS011;1973;50.518;7.318;2022-10-31T15:27:11;9.77;;;7.50;;
3916;SDS011;1973;50.518;7.318;2022-10-31T15:29:53;10.20;;;7.33;;
3916;SDS011;1973;50.518;7.318;2022-10-31T15:32:25;13.10;;;6.93;;
3916;SDS011;1973;50.518;7.318;2022-10-31T15:34:53;10.50;;;6.93;;
3916;SDS011;1973;50.518;7.318;2022-10-31T15:37:25;9.30;;;7.17;;
3916;SDS011;1973;50.518;7.318;2022-10-31T15:39:52;8.80;;;7.33;;
3916;SDS011;1973;50.518;7.318;2022-10-31T15:42:23;12.60;;;7.00;;
3916;SDS011;1973;50.518;7.318;2022-10-31T15:44:57;18.97;;;9.90;;
3916;SDS011;1973;50.518;7.318;2022-10-31T15:47:31;14.77;;;9.00;;
3916;SDS011;1973;50.518;7.318;2022-10-31T15:49:59;13.77;;;10.33;;
3916;SDS011;1973;50.518;7.318;2022-10-31T15:57:42;10.87;;;7.53;;
3916;SDS011;1973;50.518;7.318;2022-10-31T16:00:23;17.20;;;7.47;;
3916;SDS011;1973;50.518;7.318;2022-10-31T16:02:55;14.87;;;8.20;;
3916;SDS011;1973;50.518;7.318;2022-10-31T16:05:34;11.10;;;7.03;;
3916;SDS011;1973;50.518;7.318;2022-10-31T16:08:20;12.50;;;6.30;;
3916;SDS011;1973;50.518;7.318;2022-10-31T16:10:50;9.93;;;7.23;;
3916;SDS011;1973;50.518;7.318;2022-10-31T16:13:17;15.70;;;10.37;;
3916;SDS011;1973;50.518;7.318;2022-10-31T16:15:48;12.47;;;10.03;;
3916;SDS011;1973;50.518;7.318;2022-10-31T16:18:37;11.70;;;10.07;;
3916;SDS011;1973;50.518;7.318;2022-10-31T16:21:06;11.90;;;9.20;;
3916;SDS011;1973;50.518;7.318;2022-10-31T16:23:34;11.30;;;8.77;;
3916;SDS011;1973;50.518;7.318;2022-10-31T16:26:07;14.63;;;10.27;;
3916;SDS011;1973;50.518;7.318;2022-10-31T16:28:35;11.83;;;8.50;;
3916;SDS011;1973;50.518;7.318;2022-10-31T16:31:14;9.50;;;7.30;;
3916;SDS011;1973;50.518;7.318;2022-10-31T16:33:41;13.50;;;8.70;;
3916;SDS011;1973;50.518;7.318;2022-10-31T16:39:01;11.47;;;8.13;;
3916;SDS011;1973;50.518;7.318;2022-10-31T16:41:28;10.27;;;6.57;;
3916;SDS011;1973;50.518;7.318;2022-10-31T16:43:55;9.30;;;6.30;;
3916;SDS011;1973;50.518;7.318;2022-10-31T16:46:22;11.80;;;6.40;;
3916;SDS011;1973;50.518;7.318;2022-10-31T16:48:50;12.10;;;8.10;;
3916;SDS011;1973;50.518;7.318;2022-10-31T16:51:17;10.97;;;8.03;;
3916;SDS011;1973;50.518;7.318;2022-10-31T16:53:44;12.93;;;8.93;;
3916;SDS011;1973;50.518;7.318;2022-10-31T16:56:20;11.20;;;8.80;;
3916;SDS011;1973;50.518;7.318;2022-10-31T16:58:52;13.07;;;8.73;;
3916;SDS011;1973;50.518;7.318;2022-10-31T17:01:18;12.93;;;9.80;;
3916;SDS011;1973;50.518;7.318;2022-10-31T17:03:45;11.57;;;8.00;;
3916;SDS011;1973;50.518;7.318;2022-10-31T17:06:12;11.53;;;7.90;;
3916;SDS011;1973;50.518;7.318;2022-10-31T17:08:39;9.80;;;7.60;;
3916;SDS011;1973;50.518;7.318;2022-10-31T17:11:07;12.87;;;8.33;;
3916;SDS011;1973;50.518;7.318;2022-10-31T17:13:39;12.33;;;7.90;;
3916;SDS011;1973;50.518;7.318;2022-10-31T17:16:06;13.93;;;9.23;;
3916;SDS011;1973;50.518;7.318;2022-10-31T17:18:32;14.60;;;10.20;;
3916;SDS011;1973;50.518;7.318;2022-10-31T17:21:00;16.77;;;9.50;;
3916;SDS011;1973;50.518;7.318;2022-10-31T17:23:29;15.40;;;10.77;;